createdAt,value
2024-03-03T14:12:06.678Z,46.00
2024-03-03T14:14:06.968Z,42.76
2024-03-03T14:16:07.278Z,44.34
2024-03-03T14:18:07.640Z,44.86
2024-03-03T14:20:08.039Z,44.84
2024-03-03T14:22:08.319Z,45.34
2024-03-03T14:24:08.673Z,46.14
2024-03-03T14:26:08.955Z,43.93
2024-03-03T14:28:13.217Z,46.72
2024-03-03T14:30:14.749Z,44.46
2024-03-03T14:32:15.109Z,46.08
2024-03-03T14:34:15.424Z,47.41
2024-03-03T14:36:15.679Z,46.50
2024-03-03T14:38:15.958Z,48.11
2024-03-03T14:40:16.277Z,47.91
2024-03-03T14:42:16.551Z,49.26
2024-03-03T14:44:16.840Z,47.33
2024-03-03T14:46:17.127Z,47.33
2024-03-03T14:48:17.464Z,47.03
2024-03-03T14:50:17.753Z,47.23
2024-03-03T14:52:18.146Z,48.23
2024-03-03T14:54:18.461Z,46.50
2024-03-03T14:56:18.760Z,47.20
2024-03-03T14:58:19.067Z,47.31
2024-03-03T15:00:19.370Z,46.70
2024-03-03T15:02:19.688Z,46.70
2024-03-03T15:04:19.969Z,46.61
2024-03-03T15:06:20.241Z,46.62
2024-03-03T15:08:20.527Z,48.13
2024-03-03T15:10:20.845Z,47.73
2024-03-03T15:12:21.146Z,48.13
2024-03-03T15:14:21.428Z,49.96
2024-03-03T15:16:21.797Z,49.96
2024-03-03T15:18:22.053Z,50.79
2024-03-03T15:20:22.335Z,51.51
2024-03-03T15:22:22.703Z,52.64
2024-03-03T15:24:23.070Z,53.05
2024-03-03T15:26:23.340Z,53.27
2024-03-03T15:28:23.703Z,53.27
2024-03-03T15:30:23.993Z,53.80
2024-03-03T15:32:25.562Z,54.63
2024-03-03T15:34:25.931Z,55.36
2024-03-03T15:36:26.208Z,55.26
2024-03-03T15:38:26.483Z,54.96
2024-03-03T15:40:38.086Z,55.06
2024-03-03T15:42:38.472Z,55.56
2024-03-03T15:44:39.076Z,55.99
2024-03-03T15:46:39.619Z,55.66
2024-03-03T15:48:40.443Z,55.76
2024-03-03T15:50:40.873Z,55.76
2024-03-03T15:52:41.134Z,55.43
2024-03-03T15:54:41.438Z,56.27
2024-03-03T15:56:41.727Z,55.87
2024-03-03T15:58:42.075Z,55.46
2024-03-03T16:00:42.466Z,56.40
2024-03-03T16:02:42.826Z,56.40
2024-03-03T16:04:43.249Z,56.32
2024-03-03T16:06:43.528Z,56.92
2024-03-03T16:08:43.822Z,57.45
2024-03-03T16:10:44.146Z,58.16
2024-03-03T16:12:44.467Z,58.29
2024-03-03T16:14:44.855Z,58.29
2024-03-03T16:16:45.245Z,59.02
2024-03-03T16:18:45.658Z,59.83
2024-03-03T16:20:45.908Z,59.56
2024-03-03T16:22:46.179Z,59.66
2024-03-03T16:24:46.543Z,60.19
2024-03-03T16:26:46.787Z,59.89
2024-03-03T16:28:47.075Z,60.82
2024-03-03T16:30:47.448Z,60.72
2024-03-03T16:32:47.907Z,61.83
2024-03-03T16:34:48.167Z,62.16
2024-03-03T16:36:48.519Z,62.07
2024-03-03T16:39:31.334Z,62.30
2024-03-03T16:41:31.647Z,63.21
2024-03-03T16:43:32.046Z,65.16
2024-03-03T16:45:32.350Z,64.79
2024-03-03T16:47:32.698Z,65.19
2024-03-03T16:49:33.065Z,66.24
2024-03-03T16:51:33.449Z,66.16
2024-03-03T16:53:33.812Z,67.58
2024-03-03T16:55:34.193Z,69.17
2024-03-03T16:57:34.638Z,71.26
2024-03-03T16:59:34.894Z,71.50
2024-03-03T17:01:35.300Z,71.73
2024-03-03T17:03:35.564Z,71.12
2024-03-03T17:05:35.837Z,72.55
2024-03-03T17:07:36.275Z,73.06
2024-03-03T17:09:36.556Z,74.52
2024-03-03T17:11:36.852Z,74.55
2024-03-03T17:13:37.209Z,74.28
2024-03-03T17:15:37.558Z,75.70
2024-03-03T17:17:37.885Z,75.40
2024-03-03T17:19:38.282Z,77.67
2024-03-03T17:21:38.553Z,78.93
2024-03-03T17:23:38.851Z,79.68
2024-03-03T17:25:39.167Z,79.89
2024-03-03T17:27:39.442Z,79.82
2024-03-03T17:29:39.768Z,80.84
2024-03-03T17:31:40.084Z,81.35
2024-03-03T17:33:40.374Z,81.59
2024-03-03T17:35:40.747Z,80.37
2024-03-03T17:37:45.823Z,80.68
2024-03-03T17:39:46.190Z,80.16
2024-03-03T17:41:46.523Z,81.29
2024-03-03T17:43:46.838Z,81.29
2024-03-03T17:45:47.106Z,83.47
2024-03-03T17:47:47.534Z,83.47
2024-03-03T17:49:47.811Z,83.37
2024-03-03T17:51:48.206Z,83.47
2024-03-03T17:54:30.170Z,85.55
2024-03-03T17:56:30.467Z,84.94
2024-03-03T17:58:30.858Z,86.06
2024-03-03T18:00:31.133Z,86.71
2024-03-03T18:02:31.457Z,87.53
2024-03-03T18:04:31.767Z,86.71
2024-03-03T18:06:32.016Z,86.00
2024-03-03T18:08:32.313Z,86.20
2024-03-03T18:10:32.643Z,86.61
2024-03-03T18:12:32.954Z,86.10
2024-03-03T18:14:33.261Z,84.98
2024-03-03T18:16:33.572Z,85.28
2024-03-03T18:18:33.947Z,84.16
2024-03-03T18:20:35.150Z,83.65
2024-03-03T18:22:35.703Z,83.54
2024-03-03T18:24:36.067Z,83.34
2024-03-03T18:26:36.329Z,82.42
2024-03-03T18:28:36.683Z,81.91
2024-03-03T18:30:37.024Z,78.00
2024-03-03T18:32:37.280Z,76.93
2024-03-03T18:34:37.667Z,76.73
2024-03-03T18:36:38.033Z,76.84
2024-03-03T18:38:38.277Z,77.18
2024-03-03T18:40:38.641Z,78.81
2024-03-03T18:42:38.880Z,78.75
2024-03-03T18:44:39.216Z,78.99
2024-03-03T18:46:39.553Z,79.39
2024-03-03T18:48:39.871Z,79.50
2024-03-03T18:50:41.777Z,80.62
2024-03-03T18:52:43.330Z,80.46
2024-03-03T18:54:43.726Z,81.68
2024-03-03T18:56:44.223Z,81.27
2024-03-03T18:58:44.530Z,80.56
2024-03-03T19:00:46.988Z,80.21
2024-03-03T19:02:49.227Z,79.91
2024-03-03T19:04:49.477Z,80.83
2024-03-03T19:06:49.880Z,80.87
2024-03-03T19:08:50.124Z,81.82
2024-03-03T19:10:50.534Z,81.72
2024-03-03T19:12:50.966Z,82.27
2024-03-03T19:14:51.291Z,83.19
2024-03-03T19:16:51.619Z,84.22
2024-03-03T19:18:51.947Z,84.46
2024-03-03T19:20:52.243Z,84.87
2024-03-03T19:22:54.177Z,84.25
2024-03-03T19:24:55.686Z,84.83
2024-03-03T19:26:55.999Z,84.72
2024-03-03T19:28:56.341Z,84.77
2024-03-03T19:30:56.698Z,84.56
2024-03-03T19:32:57.026Z,85.38
2024-03-03T19:34:58.062Z,84.66
2024-03-03T19:36:58.443Z,85.28
2024-03-03T19:39:03.531Z,83.95
2024-03-03T19:41:03.931Z,84.15
2024-03-03T19:43:04.248Z,83.91
2024-03-03T19:45:04.562Z,84.01
2024-03-03T19:47:04.837Z,83.70
2024-03-03T19:49:05.244Z,82.68
2024-03-03T19:51:05.524Z,83.29
2024-03-03T19:53:05.787Z,83.50
2024-03-03T19:55:06.404Z,84.05
2024-03-03T19:57:06.680Z,84.56
2024-03-03T19:59:06.997Z,85.99
2024-03-03T20:01:07.404Z,86.55
2024-03-03T20:03:07.759Z,87.16
2024-03-03T20:05:08.098Z,87.57
2024-03-03T20:07:08.529Z,86.75
2024-03-03T20:09:08.940Z,84.97
2024-03-03T20:11:11.203Z,84.22
2024-03-03T20:13:11.553Z,82.68
2024-03-03T20:15:12.233Z,82.34
2024-03-03T20:17:12.669Z,82.54
2024-03-03T20:19:13.031Z,81.82
2024-03-03T20:21:13.366Z,80.69
2024-03-03T20:23:13.893Z,79.09
2024-03-03T20:25:14.729Z,77.42
2024-03-03T20:27:15.027Z,76.60
2024-03-03T20:29:15.717Z,76.40
2024-03-03T20:31:16.071Z,76.40
2024-03-03T20:33:16.467Z,76.50
2024-03-03T20:35:16.748Z,76.90
2024-03-03T20:37:17.084Z,77.01
2024-03-03T20:39:22.222Z,77.66
2024-03-03T20:41:22.483Z,78.27
2024-03-03T20:43:22.829Z,78.52
2024-03-03T20:45:23.355Z,78.92
2024-03-03T20:47:23.744Z,79.02
2024-03-03T20:49:24.093Z,79.13
2024-03-03T20:51:24.398Z,79.43
2024-03-03T20:53:26.745Z,79.53
2024-03-03T20:55:27.049Z,80.08
2024-03-03T20:57:27.334Z,80.49
2024-03-03T20:59:27.630Z,81.21
2024-03-03T21:01:28.070Z,81.62
2024-03-03T21:03:28.384Z,81.72
2024-03-03T21:05:28.890Z,82.37
2024-03-03T21:07:29.174Z,82.57
2024-03-03T21:09:29.507Z,82.89
2024-03-03T21:11:29.835Z,83.19
2024-03-03T21:13:30.121Z,83.74
2024-03-03T21:15:30.494Z,84.05
2024-03-03T21:17:30.783Z,84.36
2024-03-03T21:19:31.111Z,84.56
2024-03-03T21:21:31.413Z,84.56
2024-03-03T21:23:31.759Z,84.97
2024-03-03T21:25:32.062Z,85.63
2024-03-03T21:27:32.359Z,86.44
2024-03-03T21:29:32.671Z,86.90
2024-03-03T21:31:33.042Z,87.41
2024-03-03T21:33:38.159Z,88.37
2024-03-03T21:35:38.448Z,89.29
2024-03-03T21:37:38.829Z,89.50
2024-03-03T21:39:39.099Z,89.50
2024-03-03T21:41:39.390Z,89.60
2024-03-03T21:43:39.755Z,89.50
2024-03-03T21:45:40.028Z,90.46
2024-03-03T21:47:40.326Z,90.40
2024-03-03T21:49:40.749Z,91.00
2024-03-03T21:51:41.066Z,92.38
2024-03-03T21:53:41.364Z,94.68
2024-03-03T21:55:41.686Z,95.09
2024-03-03T21:57:41.961Z,94.68
2024-03-03T21:59:42.263Z,95.20
2024-03-03T22:01:52.261Z,95.30
2024-03-03T22:03:47.785Z,94.62
2024-03-03T22:05:48.089Z,95.08
2024-03-03T22:07:48.346Z,95.49
2024-03-03T22:09:48.651Z,95.80
2024-03-03T22:11:49.064Z,95.64
2024-03-03T22:13:49.341Z,96.46
2024-03-03T22:15:49.748Z,96.56
2024-03-03T22:17:50.023Z,96.36
2024-03-03T22:19:50.332Z,96.36
2024-03-03T22:21:50.641Z,96.36
2024-03-03T22:23:50.901Z,96.36
2024-03-03T22:25:51.280Z,96.15
2024-03-03T22:27:51.733Z,96.77
2024-03-03T22:29:52.722Z,96.67
2024-03-03T22:31:53.163Z,96.77
2024-03-03T22:33:53.491Z,96.61
2024-03-03T22:35:53.784Z,96.81
2024-03-03T22:37:54.133Z,96.71
2024-03-03T22:39:54.597Z,96.50
2024-03-03T22:41:54.851Z,96.61
2024-03-03T22:43:55.196Z,96.61
2024-03-03T22:45:55.532Z,96.81
2024-03-03T22:47:55.917Z,96.92
2024-03-03T22:49:56.241Z,97.02
2024-03-03T22:51:56.600Z,96.92
2024-03-03T22:53:56.862Z,97.02
2024-03-03T22:55:57.212Z,97.13
2024-03-03T22:57:57.501Z,97.13
2024-03-03T22:59:57.851Z,97.13
2024-03-03T23:01:58.273Z,97.13
2024-03-03T23:03:58.645Z,97.13
2024-03-03T23:05:58.936Z,97.17
2024-03-03T23:07:59.280Z,97.06
2024-03-03T23:09:59.567Z,97.17
2024-03-03T23:11:59.989Z,97.42
2024-03-03T23:14:00.280Z,97.31
2024-03-03T23:16:00.638Z,97.52
2024-03-03T23:18:00.947Z,97.73
2024-03-03T23:20:01.280Z,97.63
2024-03-03T23:22:01.573Z,97.73
2024-03-03T23:24:01.960Z,97.73
2024-03-03T23:26:02.292Z,97.73
2024-03-03T23:28:02.619Z,97.73
2024-03-03T23:30:02.930Z,97.73
2024-03-03T23:32:03.217Z,97.73
2024-03-03T23:34:03.524Z,97.73
2024-03-03T23:36:04.703Z,97.73
2024-03-03T23:38:04.980Z,97.83
2024-03-03T23:40:05.282Z,97.83
2024-03-03T23:42:05.584Z,97.88
2024-03-03T23:44:05.903Z,97.83
2024-03-03T23:46:06.209Z,97.88
2024-03-03T23:48:06.505Z,97.77
2024-03-03T23:50:06.779Z,97.82
2024-03-03T23:52:07.111Z,97.82
2024-03-03T23:54:07.365Z,98.07
2024-03-03T23:56:07.649Z,98.01
2024-03-03T23:58:08.005Z,98.01
